createdAt,value
2023-05-12T00:01:12.528Z,9.47
2023-05-12T00:03:40.243Z,8.83
2023-05-12T00:06:07.618Z,10.75
2023-05-12T00:08:35.513Z,10.77
2023-05-12T00:11:03.045Z,8.83
2023-05-12T00:13:30.619Z,9.00
2023-05-12T00:15:59.509Z,9.13
2023-05-12T00:18:26.825Z,8.67
2023-05-12T00:20:55.130Z,8.40
2023-05-12T00:23:22.999Z,9.33
2023-05-12T00:25:50.569Z,9.40
2023-05-12T00:28:18.065Z,8.87
2023-05-12T00:30:46.402Z,8.40
2023-05-12T00:33:13.958Z,8.70
2023-05-12T00:35:41.478Z,7.67
2023-05-12T00:38:09.072Z,8.53
2023-05-12T00:40:36.613Z,8.50
2023-05-12T00:43:04.125Z,8.67
2023-05-12T00:45:32.545Z,9.00
2023-05-12T00:48:00.070Z,9.53
2023-05-12T00:50:27.554Z,9.33
2023-05-12T00:52:55.889Z,9.57
2023-05-12T00:55:23.413Z,9.00
2023-05-12T00:57:51.002Z,8.90
2023-05-12T01:00:18.850Z,9.70
2023-05-12T01:02:46.154Z,8.67
2023-05-12T01:05:13.600Z,8.90
2023-05-12T01:07:41.982Z,9.13
2023-05-12T01:10:19.376Z,9.23
2023-05-12T01:12:46.780Z,9.63
2023-05-12T01:15:14.323Z,9.63
2023-05-12T01:17:41.938Z,9.33
2023-05-12T01:20:09.581Z,9.17
2023-05-12T01:22:37.136Z,9.37
2023-05-12T01:25:04.687Z,12.55
2023-05-12T01:27:32.645Z,9.87
2023-05-12T01:30:00.187Z,9.43
2023-05-12T01:32:28.487Z,10.10
2023-05-12T01:34:56.339Z,9.80
2023-05-12T01:37:23.856Z,9.80
2023-05-12T01:39:52.167Z,9.60
2023-05-12T01:42:19.777Z,9.57
2023-05-12T01:44:47.298Z,9.73
2023-05-12T01:47:14.818Z,9.40
2023-05-12T01:49:42.411Z,9.63
2023-05-12T01:52:09.925Z,9.23
2023-05-12T01:54:38.216Z,9.23
2023-05-12T01:57:05.886Z,8.90
2023-05-12T01:59:33.432Z,8.50
2023-05-12T02:02:01.037Z,9.97
2023-05-12T02:04:28.535Z,8.67
2023-05-12T02:06:56.852Z,11.40
2023-05-12T02:09:25.968Z,10.50
2023-05-12T02:11:52.290Z,8.87
2023-05-12T02:14:19.835Z,8.70
2023-05-12T02:16:50.505Z,11.45
2023-05-12T02:19:17.979Z,10.07
2023-05-12T02:21:45.502Z,9.63
2023-05-12T02:24:14.778Z,8.50
2023-05-12T02:26:40.938Z,8.93
2023-05-12T02:29:08.468Z,8.80
2023-05-12T02:31:36.001Z,10.85
2023-05-12T02:34:05.787Z,8.87
2023-05-12T02:36:31.145Z,9.07
2023-05-12T02:38:58.682Z,9.60
2023-05-12T02:41:27.016Z,9.53
2023-05-12T02:43:54.536Z,9.07
2023-05-12T02:46:22.140Z,9.27
2023-05-12T02:48:50.673Z,9.03
2023-05-12T02:51:18.207Z,8.73
2023-05-12T02:53:46.512Z,9.23
2023-05-12T02:56:14.377Z,9.37
2023-05-12T02:58:41.917Z,9.73
2023-05-12T03:01:11.502Z,9.53
2023-05-12T03:03:38.047Z,9.50
2023-05-12T03:06:05.326Z,9.77
2023-05-12T03:08:32.849Z,9.63
2023-05-12T03:11:01.205Z,9.60
2023-05-12T03:13:28.798Z,9.73
2023-05-12T03:15:57.100Z,9.97
2023-05-12T03:18:24.689Z,10.27
2023-05-12T03:20:52.207Z,9.90
2023-05-12T03:23:19.752Z,9.33
2023-05-12T03:25:48.109Z,9.93
2023-05-12T03:28:15.678Z,9.77
2023-05-12T03:30:43.236Z,9.43
2023-05-12T03:33:10.824Z,9.23
2023-05-12T03:35:39.131Z,11.43
2023-05-12T03:38:06.653Z,9.63
2023-05-12T03:40:34.244Z,9.73
2023-05-12T03:43:01.765Z,8.93
2023-05-12T03:45:29.307Z,11.43
2023-05-12T03:47:57.023Z,10.33
2023-05-12T03:50:24.558Z,9.73
2023-05-12T03:52:52.099Z,8.87
2023-05-12T03:55:20.471Z,8.30
2023-05-12T03:57:48.783Z,8.67
2023-05-12T04:00:16.422Z,8.83
2023-05-12T04:02:44.420Z,9.73
2023-05-12T04:05:11.820Z,11.52
2023-05-12T04:07:39.376Z,9.33
2023-05-12T04:10:07.206Z,9.20
2023-05-12T04:12:34.789Z,12.27
2023-05-12T04:15:02.292Z,10.73
2023-05-12T04:17:31.032Z,9.40
2023-05-12T04:19:58.529Z,9.80
2023-05-12T04:22:26.831Z,10.00
2023-05-12T04:24:54.560Z,8.80
2023-05-12T04:27:22.111Z,9.60
2023-05-12T04:29:49.621Z,9.57
2023-05-12T04:32:17.299Z,12.07
2023-05-12T04:34:44.738Z,10.20
2023-05-12T04:37:12.281Z,10.10
2023-05-12T04:39:40.827Z,10.30
2023-05-12T04:42:08.380Z,10.13
2023-05-12T04:44:35.905Z,13.02
2023-05-12T04:47:03.495Z,11.57
2023-05-12T04:49:31.033Z,10.93
2023-05-12T04:51:58.575Z,10.30
2023-05-12T04:54:26.167Z,11.07
2023-05-12T04:56:53.700Z,11.00
2023-05-12T04:59:21.269Z,13.62
2023-05-12T05:01:49.490Z,12.57
2023-05-12T05:04:16.972Z,11.23
2023-05-12T05:06:44.488Z,11.63
2023-05-12T05:09:12.080Z,11.20
2023-05-12T05:11:40.360Z,10.83
2023-05-12T05:14:08.275Z,11.87
2023-05-12T05:16:36.121Z,11.90
2023-05-12T05:19:06.496Z,11.63
2023-05-12T05:21:31.945Z,11.97
2023-05-12T05:23:59.510Z,11.53
2023-05-12T05:26:27.044Z,11.23
2023-05-12T05:28:54.571Z,11.50
2023-05-12T05:31:22.226Z,11.27
2023-05-12T05:33:50.532Z,11.33
2023-05-12T05:36:18.013Z,11.60
2023-05-12T05:38:45.573Z,10.77
2023-05-12T05:41:13.128Z,11.90
2023-05-12T05:43:40.662Z,11.47
2023-05-12T05:46:09.018Z,11.20
2023-05-12T05:48:39.171Z,10.80
2023-05-12T05:51:07.473Z,11.10
2023-05-12T05:53:35.036Z,11.77
2023-05-12T05:56:02.586Z,10.50
2023-05-12T05:58:30.101Z,11.13
2023-05-12T06:00:58.443Z,11.10
2023-05-12T06:03:26.069Z,10.70
2023-05-12T06:05:53.528Z,11.03
2023-05-12T06:08:21.118Z,11.73
2023-05-12T06:10:48.658Z,10.87
2023-05-12T06:13:16.176Z,10.97
2023-05-12T06:15:44.607Z,11.80
2023-05-12T06:18:12.190Z,10.47
2023-05-12T06:20:39.692Z,11.53
2023-05-12T06:23:08.043Z,11.53
2023-05-12T06:25:35.567Z,11.67
2023-05-12T06:28:03.116Z,14.18
2023-05-12T06:30:30.690Z,13.20
2023-05-12T06:32:58.256Z,12.40
2023-05-12T06:35:25.742Z,11.83
2023-05-12T06:37:54.086Z,12.40
2023-05-12T06:40:21.622Z,11.93
2023-05-12T06:42:49.257Z,14.20
2023-05-12T06:45:17.632Z,12.40
2023-05-12T06:47:45.077Z,11.43
2023-05-12T06:50:12.586Z,13.73
2023-05-12T06:52:40.172Z,12.20
2023-05-12T06:55:07.751Z,10.93
2023-05-12T06:57:35.283Z,10.80
2023-05-12T07:00:02.868Z,13.55
2023-05-12T07:02:30.483Z,12.20
2023-05-12T07:04:57.970Z,12.03
2023-05-12T07:07:25.557Z,12.80
2023-05-12T07:09:53.857Z,11.03
2023-05-12T07:12:21.388Z,11.70
2023-05-12T07:14:49.734Z,10.70
2023-05-12T07:17:17.268Z,10.30
2023-05-12T07:19:44.896Z,13.30
2023-05-12T07:22:14.315Z,11.43
2023-05-12T07:24:42.579Z,10.83
2023-05-12T07:27:10.131Z,10.90
2023-05-12T07:29:38.733Z,11.30
2023-05-12T07:32:06.298Z,10.83
2023-05-12T07:34:33.840Z,10.67
2023-05-12T07:37:02.545Z,10.97
2023-05-12T07:39:30.132Z,10.77
2023-05-12T07:41:57.642Z,10.77
2023-05-12T07:44:26.065Z,10.73
2023-05-12T07:46:53.602Z,11.30
2023-05-12T07:49:21.108Z,10.53
2023-05-12T07:51:48.697Z,11.10
2023-05-12T07:54:16.238Z,10.67
2023-05-12T07:56:43.772Z,11.07
2023-05-12T07:59:11.347Z,10.67
2023-05-12T08:01:38.984Z,9.40
2023-05-12T08:04:06.481Z,9.47
2023-05-12T08:06:34.260Z,9.83
2023-05-12T08:09:01.793Z,8.83
2023-05-12T08:11:29.336Z,8.87
2023-05-12T08:13:56.912Z,9.10
2023-05-12T08:16:24.479Z,11.68
2023-05-12T08:18:52.012Z,9.50
2023-05-12T08:21:19.563Z,9.87
2023-05-12T08:23:47.077Z,9.43
2023-05-12T08:26:17.487Z,9.83
2023-05-12T08:28:45.838Z,9.10
2023-05-12T08:31:13.465Z,9.77
2023-05-12T08:33:40.899Z,9.50
2023-05-12T08:36:09.251Z,9.97
2023-05-12T08:38:36.771Z,9.50
2023-05-12T08:41:26.422Z,9.57
2023-05-12T08:43:53.950Z,9.67
2023-05-12T08:46:22.255Z,8.93
2023-05-12T08:48:49.840Z,7.97
2023-05-12T08:51:17.362Z,7.57
2023-05-12T08:53:44.896Z,7.50
2023-05-12T08:58:42.057Z,7.50
2023-05-12T09:01:08.319Z,5.80
2023-05-12T09:03:36.675Z,5.17
2023-05-12T09:06:04.185Z,5.23
2023-05-12T09:08:34.406Z,5.30
2023-05-12T09:11:02.263Z,5.43
2023-05-12T09:13:47.829Z,4.73
2023-05-12T09:16:15.445Z,5.47
2023-05-12T09:18:52.219Z,5.60
2023-05-12T09:21:20.496Z,5.17
2023-05-12T09:23:54.167Z,5.13
2023-05-12T09:26:21.671Z,6.22
2023-05-12T09:28:50.047Z,5.03
2023-05-12T09:31:17.639Z,5.10
2023-05-12T09:33:45.112Z,4.33
2023-05-12T09:36:12.677Z,4.60
2023-05-12T09:38:40.204Z,4.00
2023-05-12T09:41:07.731Z,4.20
2023-05-12T09:43:35.312Z,4.00
2023-05-12T09:46:06.322Z,3.90
2023-05-12T09:48:33.810Z,4.27
2023-05-12T09:51:02.223Z,4.40
2023-05-12T09:53:29.733Z,4.27
2023-05-12T09:55:57.314Z,3.97
2023-05-12T09:58:24.891Z,4.30
2023-05-12T10:01:17.630Z,4.63
2023-05-12T10:03:20.718Z,3.13
2023-05-12T10:05:50.977Z,3.13
2023-05-12T10:08:18.513Z,3.43
2023-05-12T10:10:46.026Z,3.73
2023-05-12T10:13:14.402Z,3.00
2023-05-12T10:15:41.904Z,2.50
2023-05-12T10:18:09.472Z,2.30
2023-05-12T10:20:37.110Z,2.30
2023-05-12T10:23:04.636Z,2.00
2023-05-12T10:25:32.171Z,1.70
2023-05-12T10:27:59.738Z,3.07
2023-05-12T10:30:27.272Z,2.57
2023-05-12T10:32:54.875Z,1.90
2023-05-12T10:35:22.525Z,1.67
2023-05-12T10:37:49.926Z,1.60
2023-05-12T10:40:23.446Z,1.97
2023-05-12T10:42:51.766Z,1.80
2023-05-12T10:45:20.450Z,1.60
2023-05-12T10:47:47.641Z,1.73
2023-05-12T10:50:15.222Z,1.30
2023-05-12T10:52:58.389Z,1.50
2023-05-12T10:55:32.550Z,1.93
2023-05-12T10:58:12.794Z,0.97
2023-05-12T11:00:45.948Z,1.13
2023-05-12T11:03:17.089Z,1.20
2023-05-12T11:05:44.233Z,0.90
2023-05-12T11:08:11.976Z,1.10
2023-05-12T11:10:39.724Z,1.00
2023-05-12T11:13:06.504Z,3.47
2023-05-12T11:15:34.635Z,1.90
2023-05-12T11:18:04.896Z,2.30
2023-05-12T11:20:33.102Z,1.50
2023-05-12T11:23:01.441Z,1.40
2023-05-12T11:25:29.016Z,1.20
2023-05-12T11:27:56.515Z,1.30
2023-05-12T11:30:24.097Z,1.17
2023-05-12T11:32:51.656Z,1.00
2023-05-12T11:35:19.466Z,1.10
2023-05-12T11:37:46.767Z,1.03
2023-05-12T11:40:20.187Z,0.90
2023-05-12T11:42:50.135Z,0.93
2023-05-12T11:45:22.551Z,1.30
2023-05-12T11:47:49.718Z,1.62
2023-05-12T11:50:20.962Z,1.00
2023-05-12T11:52:48.530Z,1.30
2023-05-12T11:55:16.050Z,1.77
2023-05-12T11:57:43.584Z,2.20
2023-05-12T12:00:12.034Z,2.00
2023-05-12T12:02:39.736Z,1.90
2023-05-12T12:05:09.211Z,1.80
2023-05-12T12:07:37.578Z,1.60
2023-05-12T12:10:14.117Z,2.10
2023-05-12T12:12:44.676Z,2.20
2023-05-12T12:15:12.260Z,2.00
2023-05-12T12:17:40.801Z,1.55
2023-05-12T12:20:09.425Z,1.20
2023-05-12T12:22:36.669Z,1.00
2023-05-12T12:25:04.228Z,2.37
2023-05-12T12:27:31.759Z,1.10
2023-05-12T12:29:59.267Z,1.67
2023-05-12T12:32:27.616Z,1.40
2023-05-12T12:34:55.178Z,1.70
2023-05-12T12:37:22.712Z,1.00
2023-05-12T12:39:50.236Z,0.88
2023-05-12T12:42:17.821Z,1.10
2023-05-12T12:44:45.356Z,0.80
2023-05-12T12:47:13.012Z,0.93
2023-05-12T12:49:41.240Z,0.97
2023-05-12T12:52:08.776Z,1.50
2023-05-12T12:54:36.354Z,1.17
2023-05-12T12:57:03.908Z,0.90
2023-05-12T12:59:31.440Z,0.90
2023-05-12T13:01:59.001Z,1.80
2023-05-12T13:04:27.339Z,1.50
2023-05-12T13:06:54.861Z,1.83
2023-05-12T13:09:22.407Z,1.90
2023-05-12T13:11:49.984Z,1.93
2023-05-12T13:14:17.512Z,1.90
2023-05-12T13:16:45.118Z,1.47
2023-05-12T13:19:13.441Z,1.27
2023-05-12T13:21:40.907Z,0.90
2023-05-12T13:24:08.431Z,1.10
2023-05-12T13:26:36.761Z,0.90
2023-05-12T13:29:04.321Z,0.80
2023-05-12T13:31:32.033Z,1.20
2023-05-12T13:34:00.258Z,0.80
2023-05-12T13:36:27.797Z,0.90
2023-05-12T13:38:55.311Z,1.20
2023-05-12T13:41:23.678Z,1.20
2023-05-12T13:43:51.189Z,1.37
2023-05-12T13:46:18.747Z,1.37
2023-05-12T13:48:47.059Z,1.00
2023-05-12T13:51:14.587Z,1.50
2023-05-12T13:53:42.119Z,2.10
2023-05-12T13:56:10.496Z,2.23
2023-05-12T13:58:38.003Z,2.03
2023-05-12T14:01:08.006Z,2.17
2023-05-12T14:03:33.223Z,1.63
2023-05-12T14:06:00.733Z,2.10
2023-05-12T14:08:28.288Z,2.03
2023-05-12T14:10:56.610Z,2.70
2023-05-12T14:13:24.134Z,2.13
2023-05-12T14:15:52.026Z,2.70
2023-05-12T14:18:19.233Z,2.70
2023-05-12T14:20:47.526Z,3.20
2023-05-12T14:23:15.061Z,2.57
2023-05-12T14:25:42.621Z,2.50
2023-05-12T14:28:10.255Z,2.43
2023-05-12T14:30:37.791Z,2.30
2023-05-12T14:33:05.318Z,2.50
2023-05-12T14:35:32.811Z,2.47
2023-05-12T14:38:00.299Z,2.53
2023-05-12T14:40:27.859Z,2.57
2023-05-12T14:42:55.492Z,3.10
2023-05-12T14:45:23.158Z,3.10
2023-05-12T14:47:50.577Z,2.70
2023-05-12T14:50:18.224Z,2.67
2023-05-12T14:52:45.620Z,3.20
2023-05-12T14:55:13.225Z,3.10
2023-05-12T14:57:43.699Z,3.30
2023-05-12T15:00:11.251Z,3.30
2023-05-12T15:02:38.979Z,3.20
2023-05-12T15:05:06.477Z,3.73
2023-05-12T15:07:34.016Z,3.93
2023-05-12T15:10:01.627Z,3.80
2023-05-12T15:12:29.134Z,4.47
2023-05-12T15:14:57.426Z,4.27
2023-05-12T15:17:25.560Z,3.10
2023-05-12T15:19:53.058Z,4.00
2023-05-12T15:22:20.594Z,3.90
2023-05-12T15:24:48.932Z,3.60
2023-05-12T15:27:16.462Z,3.57
2023-05-12T15:29:44.000Z,3.57
2023-05-12T15:32:12.341Z,3.33
2023-05-12T15:34:40.139Z,4.00
2023-05-12T15:37:07.687Z,3.80
2023-05-12T15:39:36.009Z,3.50
2023-05-12T15:42:04.341Z,3.50
2023-05-12T15:44:31.062Z,3.60
2023-05-12T15:46:58.785Z,3.27
2023-05-12T15:49:26.943Z,3.90
2023-05-12T15:51:54.467Z,3.70
2023-05-12T15:54:22.808Z,3.53
2023-05-12T15:56:50.340Z,3.47
2023-05-12T15:59:17.859Z,3.33
2023-05-12T16:01:46.236Z,3.80
2023-05-12T16:04:13.811Z,3.93
2023-05-12T16:06:41.268Z,3.40
2023-05-12T16:09:09.640Z,3.27
2023-05-12T16:11:37.925Z,3.33
2023-05-12T16:14:05.462Z,3.80
2023-05-12T16:16:33.858Z,3.30
2023-05-12T16:19:01.385Z,3.33
2023-05-12T16:21:28.888Z,3.23
2023-05-12T16:23:56.453Z,3.30
2023-05-12T16:26:24.017Z,3.20
2023-05-12T16:28:52.279Z,3.30
2023-05-12T16:31:19.943Z,2.97
2023-05-12T16:33:47.403Z,2.77
2023-05-12T16:36:16.120Z,3.30
2023-05-12T16:38:43.314Z,2.63
2023-05-12T16:41:10.836Z,2.80
2023-05-12T16:43:38.363Z,2.90
2023-05-12T16:46:05.995Z,2.97
2023-05-12T16:48:36.573Z,2.93
2023-05-12T16:51:04.129Z,2.97
2023-05-12T16:53:31.923Z,3.25
2023-05-12T16:55:59.225Z,2.70
2023-05-12T16:58:26.752Z,3.00
2023-05-12T17:00:55.672Z,2.73
2023-05-12T17:03:23.508Z,2.50
2023-05-12T17:05:51.504Z,2.83
2023-05-12T17:08:19.117Z,2.50
2023-05-12T17:10:46.599Z,2.67
2023-05-12T17:13:14.115Z,2.30
2023-05-12T17:15:41.775Z,2.47
2023-05-12T17:18:09.380Z,2.33
2023-05-12T17:20:36.844Z,2.53
2023-05-12T17:23:05.443Z,2.17
2023-05-12T17:25:32.963Z,2.40
2023-05-12T17:28:00.493Z,2.40
2023-05-12T17:30:28.136Z,2.40
2023-05-12T17:32:55.690Z,2.55
2023-05-12T17:35:24.163Z,2.47
2023-05-12T17:37:51.575Z,2.17
2023-05-12T17:40:19.060Z,2.67
2023-05-12T17:42:47.376Z,2.40
2023-05-12T17:45:14.955Z,2.53
2023-05-12T17:47:42.515Z,2.20
2023-05-12T17:50:12.681Z,2.20
2023-05-12T17:52:41.012Z,2.27
2023-05-12T17:55:08.590Z,2.33
2023-05-12T17:57:36.111Z,2.62
2023-05-12T18:00:03.660Z,2.60
2023-05-12T18:02:31.260Z,2.27
2023-05-12T18:04:59.488Z,2.37
2023-05-12T18:07:27.393Z,2.73
2023-05-12T18:09:54.880Z,2.77
2023-05-12T18:12:23.183Z,2.70
2023-05-12T18:14:50.747Z,2.40
2023-05-12T18:17:18.335Z,2.70
2023-05-12T18:19:46.587Z,3.07
2023-05-12T18:22:14.154Z,3.10
2023-05-12T18:24:41.673Z,2.40
2023-05-12T18:27:10.007Z,2.43
2023-05-12T18:29:38.047Z,2.70
2023-05-12T18:32:05.581Z,3.00
2023-05-12T18:34:33.093Z,2.50
2023-05-12T18:37:00.717Z,2.50
2023-05-12T18:39:28.555Z,2.47
2023-05-12T18:41:56.848Z,2.60
2023-05-12T18:44:25.347Z,2.60
2023-05-12T18:46:53.005Z,2.60
2023-05-12T18:49:20.454Z,2.87
2023-05-12T18:51:48.041Z,2.70
2023-05-12T18:54:15.563Z,2.50
2023-05-12T18:56:43.856Z,2.40
2023-05-12T18:59:11.430Z,2.60
2023-05-12T19:01:39.006Z,2.57
2023-05-12T19:04:06.512Z,2.87
2023-05-12T19:06:35.237Z,3.00
2023-05-12T19:09:02.789Z,2.43
2023-05-12T19:11:30.318Z,2.87
2023-05-12T19:13:58.669Z,2.77
2023-05-12T19:16:26.232Z,2.80
2023-05-12T19:18:53.755Z,2.50
2023-05-12T19:21:21.294Z,2.50
2023-05-12T19:23:48.832Z,2.60
2023-05-12T19:26:17.132Z,2.53
2023-05-12T19:28:44.705Z,3.10
2023-05-12T19:31:12.330Z,2.80
2023-05-12T19:33:39.779Z,3.27
2023-05-12T19:36:08.216Z,2.43
2023-05-12T19:38:35.807Z,2.93
2023-05-12T19:41:03.347Z,2.50
2023-05-12T19:43:30.944Z,2.97
2023-05-12T19:45:59.289Z,2.90
2023-05-12T19:48:26.774Z,2.90
2023-05-12T19:50:54.359Z,3.03
2023-05-12T19:53:22.652Z,2.90
2023-05-12T19:55:50.177Z,2.63
2023-05-12T19:58:18.510Z,2.80
2023-05-12T20:00:46.035Z,3.53
2023-05-12T20:03:13.680Z,6.10
2023-05-12T20:05:41.910Z,5.17
2023-05-12T20:08:09.470Z,3.93
2023-05-12T20:10:37.003Z,3.20
2023-05-12T20:13:04.616Z,3.40
2023-05-12T20:15:32.125Z,3.30
2023-05-12T20:17:59.755Z,3.17
2023-05-12T20:20:27.222Z,2.97
2023-05-12T20:22:54.749Z,2.97
2023-05-12T20:25:23.374Z,3.20
2023-05-12T20:27:50.642Z,3.07
2023-05-12T20:30:18.168Z,3.10
2023-05-12T20:32:45.864Z,3.17
2023-05-12T20:35:14.047Z,2.97
2023-05-12T20:37:41.579Z,3.10
2023-05-12T20:40:09.289Z,2.63
2023-05-12T20:42:36.883Z,2.73
2023-05-12T20:45:04.470Z,3.20
2023-05-12T20:47:32.142Z,4.60
2023-05-12T20:49:59.618Z,2.80
2023-05-12T20:52:27.156Z,3.80
2023-05-12T20:54:57.521Z,3.22
2023-05-12T20:57:25.076Z,2.83
2023-05-12T20:59:58.557Z,2.93
2023-05-12T21:02:26.178Z,3.00
2023-05-12T21:04:53.650Z,3.27
2023-05-12T21:07:21.194Z,3.27
2023-05-12T21:09:48.723Z,2.87
2023-05-12T21:12:17.327Z,2.93
2023-05-12T21:14:44.846Z,2.83
2023-05-12T21:17:12.380Z,3.17
2023-05-12T21:19:39.974Z,2.70
2023-05-12T21:22:07.501Z,3.00
2023-05-12T21:24:35.028Z,2.87
2023-05-12T21:27:02.592Z,4.03
2023-05-12T21:29:30.125Z,3.63
2023-05-12T21:31:58.470Z,3.50
2023-05-12T21:34:25.999Z,2.70
2023-05-12T21:36:53.537Z,3.13
2023-05-12T21:39:21.072Z,3.30
2023-05-12T21:41:49.414Z,3.10
2023-05-12T21:44:17.473Z,3.47
2023-05-12T21:46:45.126Z,3.50
2023-05-12T21:49:12.564Z,3.50
2023-05-12T21:51:40.096Z,3.87
2023-05-12T21:54:08.400Z,4.10
2023-05-12T21:56:35.993Z,3.90
2023-05-12T21:59:03.517Z,4.53
2023-05-12T22:01:31.145Z,4.50
2023-05-12T22:03:59.442Z,5.03
2023-05-12T22:06:26.950Z,4.20
2023-05-12T22:08:54.487Z,4.68
2023-05-12T22:11:22.059Z,3.90
2023-05-12T22:13:49.592Z,4.40
2023-05-12T22:16:18.585Z,4.23
2023-05-12T22:18:45.516Z,3.87
2023-05-12T22:21:13.008Z,3.70
2023-05-12T22:23:40.578Z,3.80
2023-05-12T22:26:08.203Z,3.93
2023-05-12T22:28:35.737Z,4.17
2023-05-12T22:31:04.056Z,3.70
2023-05-12T22:33:31.749Z,3.90
2023-05-12T22:35:59.280Z,4.10
2023-05-12T22:38:26.802Z,3.80
2023-05-12T22:40:55.334Z,3.53
2023-05-12T22:43:22.892Z,4.30
2023-05-12T22:45:53.343Z,3.90
2023-05-12T22:48:21.176Z,4.03
2023-05-12T22:50:48.705Z,4.77
2023-05-12T22:53:16.252Z,4.73
2023-05-12T22:55:44.855Z,4.37
2023-05-12T22:58:12.383Z,4.63
2023-05-12T23:00:39.960Z,4.27
2023-05-12T23:03:07.833Z,4.57
2023-05-12T23:05:35.314Z,5.33
2023-05-12T23:08:02.848Z,5.22
2023-05-12T23:10:30.418Z,4.27
2023-05-12T23:12:57.960Z,4.60
2023-05-12T23:15:25.514Z,4.93
2023-05-12T23:17:53.901Z,5.00
2023-05-12T23:20:21.657Z,4.80
2023-05-12T23:22:48.941Z,4.90
2023-05-12T23:25:16.519Z,4.40
2023-05-12T23:27:44.053Z,3.97
2023-05-12T23:30:11.647Z,4.37
2023-05-12T23:32:39.368Z,4.80
2023-05-12T23:35:06.919Z,4.23
2023-05-12T23:37:34.368Z,5.25
2023-05-12T23:40:02.197Z,4.43
2023-05-12T23:42:29.738Z,5.03
2023-05-12T23:44:57.273Z,5.45
2023-05-12T23:47:24.884Z,5.60
2023-05-12T23:49:52.372Z,4.77
2023-05-12T23:52:20.690Z,4.87
2023-05-12T23:54:48.269Z,5.03
2023-05-12T23:57:15.795Z,4.77
2023-05-12T23:59:43.337Z,5.75
